sensor_id;sensor_type;location;lat;lon;timestamp;P1;durP1;ratioP1;P2;durP2;ratioP2
18082;SDS011;9168;51.194;6.840;2024-01-06T00:02:23;10.98;;;4.95;;
18082;SDS011;9168;51.194;6.840;2024-01-06T00:04:50;11.73;;;5.60;;
18082;SDS011;9168;51.194;6.840;2024-01-06T00:07:17;16.45;;;6.40;;
18082;SDS011;9168;51.194;6.840;2024-01-06T00:09:44;10.98;;;5.57;;
18082;SDS011;9168;51.194;6.840;2024-01-06T00:12:11;13.68;;;6.05;;
18082;SDS011;9168;51.194;6.840;2024-01-06T00:14:39;14.00;;;5.40;;
18082;SDS011;9168;51.194;6.840;2024-01-06T00:17:08;14.57;;;6.07;;
18082;SDS011;9168;51.194;6.840;2024-01-06T00:19:35;14.10;;;6.72;;
18082;SDS011;9168;51.194;6.840;2024-01-06T00:22:02;13.13;;;6.28;;
18082;SDS011;9168;51.194;6.840;2024-01-06T00:24:29;13.55;;;6.45;;
18082;SDS011;9168;51.194;6.840;2024-01-06T00:26:56;15.00;;;6.80;;
18082;SDS011;9168;51.194;6.840;2024-01-06T00:29:23;17.35;;;6.65;;
18082;SDS011;9168;51.194;6.840;2024-01-06T00:31:52;13.98;;;6.20;;
18082;SDS011;9168;51.194;6.840;2024-01-06T00:34:18;15.70;;;6.55;;
18082;SDS011;9168;51.194;6.840;2024-01-06T00:36:45;12.32;;;6.30;;
18082;SDS011;9168;51.194;6.840;2024-01-06T00:39:12;16.00;;;6.68;;
18082;SDS011;9168;51.194;6.840;2024-01-06T00:41:39;14.75;;;7.13;;
18082;SDS011;9168;51.194;6.840;2024-01-06T00:44:06;15.63;;;7.57;;
18082;SDS011;9168;51.194;6.840;2024-01-06T00:46:33;14.63;;;6.68;;
18082;SDS011;9168;51.194;6.840;2024-01-06T00:49:01;14.77;;;6.38;;
18082;SDS011;9168;51.194;6.840;2024-01-06T00:51:28;14.32;;;6.45;;
18082;SDS011;9168;51.194;6.840;2024-01-06T00:53:55;13.85;;;6.88;;
18082;SDS011;9168;51.194;6.840;2024-01-06T00:56:22;18.30;;;7.82;;
18082;SDS011;9168;51.194;6.840;2024-01-06T00:58:49;14.82;;;7.05;;
18082;SDS011;9168;51.194;6.840;2024-01-06T01:01:16;15.40;;;7.35;;
18082;SDS011;9168;51.194;6.840;2024-01-06T01:03:43;16.92;;;7.00;;
18082;SDS011;9168;51.194;6.840;2024-01-06T01:06:11;15.18;;;6.85;;
18082;SDS011;9168;51.194;6.840;2024-01-06T01:08:38;17.02;;;8.02;;
18082;SDS011;9168;51.194;6.840;2024-01-06T01:11:05;15.52;;;6.68;;
18082;SDS011;9168;51.194;6.840;2024-01-06T01:13:32;14.48;;;6.80;;
18082;SDS011;9168;51.194;6.840;2024-01-06T01:15:58;17.85;;;7.80;;
18082;SDS011;9168;51.194;6.840;2024-01-06T01:18:25;14.77;;;6.63;;
18082;SDS011;9168;51.194;6.840;2024-01-06T01:20:52;15.02;;;6.75;;
18082;SDS011;9168;51.194;6.840;2024-01-06T01:23:21;15.15;;;6.95;;
18082;SDS011;9168;51.194;6.840;2024-01-06T01:25:47;16.35;;;6.57;;
18082;SDS011;9168;51.194;6.840;2024-01-06T01:28:14;16.77;;;7.63;;
18082;SDS011;9168;51.194;6.840;2024-01-06T01:30:41;15.73;;;6.97;;
18082;SDS011;9168;51.194;6.840;2024-01-06T01:33:08;19.05;;;7.72;;
18082;SDS011;9168;51.194;6.840;2024-01-06T01:35:35;15.85;;;7.00;;
18082;SDS011;9168;51.194;6.840;2024-01-06T01:38:02;18.88;;;7.82;;
18082;SDS011;9168;51.194;6.840;2024-01-06T01:40:30;15.20;;;7.03;;
18082;SDS011;9168;51.194;6.840;2024-01-06T01:42:57;16.55;;;7.65;;
18082;SDS011;9168;51.194;6.840;2024-01-06T01:45:24;18.63;;;7.57;;
18082;SDS011;9168;51.194;6.840;2024-01-06T01:47:51;18.65;;;8.23;;
18082;SDS011;9168;51.194;6.840;2024-01-06T01:50:18;15.40;;;6.93;;
18082;SDS011;9168;51.194;6.840;2024-01-06T01:52:47;16.15;;;6.82;;
18082;SDS011;9168;51.194;6.840;2024-01-06T01:55:14;18.38;;;8.40;;
18082;SDS011;9168;51.194;6.840;2024-01-06T01:57:42;16.58;;;7.78;;
18082;SDS011;9168;51.194;6.840;2024-01-06T02:00:10;16.38;;;7.18;;
18082;SDS011;9168;51.194;6.840;2024-01-06T02:02:38;21.60;;;8.07;;
18082;SDS011;9168;51.194;6.840;2024-01-06T02:05:05;16.42;;;7.45;;
18082;SDS011;9168;51.194;6.840;2024-01-06T02:07:32;20.40;;;8.38;;
18082;SDS011;9168;51.194;6.840;2024-01-06T02:09:59;15.98;;;7.00;;
18082;SDS011;9168;51.194;6.840;2024-01-06T02:12:26;20.98;;;8.88;;
18082;SDS011;9168;51.194;6.840;2024-01-06T02:14:54;16.48;;;8.27;;
18082;SDS011;9168;51.194;6.840;2024-01-06T02:17:21;17.05;;;7.32;;
18082;SDS011;9168;51.194;6.840;2024-01-06T02:19:47;22.00;;;8.32;;
18082;SDS011;9168;51.194;6.840;2024-01-06T02:22:16;18.52;;;8.15;;
18082;SDS011;9168;51.194;6.840;2024-01-06T02:24:43;17.25;;;7.40;;
18082;SDS011;9168;51.194;6.840;2024-01-06T02:27:09;18.90;;;8.07;;
18082;SDS011;9168;51.194;6.840;2024-01-06T02:29:36;18.77;;;8.75;;
18082;SDS011;9168;51.194;6.840;2024-01-06T02:32:03;18.70;;;8.40;;
18082;SDS011;9168;51.194;6.840;2024-01-06T02:34:31;19.65;;;8.90;;
18082;SDS011;9168;51.194;6.840;2024-01-06T02:36:59;17.38;;;8.23;;
18082;SDS011;9168;51.194;6.840;2024-01-06T02:39:27;20.60;;;8.30;;
18082;SDS011;9168;51.194;6.840;2024-01-06T02:41:53;22.38;;;8.73;;
18082;SDS011;9168;51.194;6.840;2024-01-06T02:44:20;21.20;;;9.00;;
18082;SDS011;9168;51.194;6.840;2024-01-06T02:46:47;19.35;;;9.00;;
18082;SDS011;9168;51.194;6.840;2024-01-06T02:49:13;23.00;;;9.07;;
18082;SDS011;9168;51.194;6.840;2024-01-06T02:51:40;19.60;;;9.05;;
18082;SDS011;9168;51.194;6.840;2024-01-06T02:54:07;20.08;;;8.65;;
18082;SDS011;9168;51.194;6.840;2024-01-06T02:56:35;20.55;;;8.57;;
18082;SDS011;9168;51.194;6.840;2024-01-06T02:59:03;20.17;;;8.98;;
18082;SDS011;9168;51.194;6.840;2024-01-06T03:01:31;20.77;;;8.98;;
18082;SDS011;9168;51.194;6.840;2024-01-06T03:03:58;20.52;;;8.45;;
18082;SDS011;9168;51.194;6.840;2024-01-06T03:06:25;27.10;;;9.48;;
18082;SDS011;9168;51.194;6.840;2024-01-06T03:08:52;18.88;;;8.90;;
18082;SDS011;9168;51.194;6.840;2024-01-06T03:11:18;22.73;;;9.30;;
18082;SDS011;9168;51.194;6.840;2024-01-06T03:13:47;22.42;;;9.85;;
18082;SDS011;9168;51.194;6.840;2024-01-06T03:16:13;21.02;;;9.07;;
18082;SDS011;9168;51.194;6.840;2024-01-06T03:18:40;23.33;;;10.25;;
18082;SDS011;9168;51.194;6.840;2024-01-06T03:21:16;23.83;;;9.10;;
18082;SDS011;9168;51.194;6.840;2024-01-06T03:23:43;21.77;;;10.25;;
18082;SDS011;9168;51.194;6.840;2024-01-06T03:26:10;22.02;;;9.27;;
18082;SDS011;9168;51.194;6.840;2024-01-06T03:28:36;28.73;;;10.88;;
18082;SDS011;9168;51.194;6.840;2024-01-06T03:31:05;23.13;;;9.50;;
18082;SDS011;9168;51.194;6.840;2024-01-06T03:33:32;22.13;;;9.43;;
18082;SDS011;9168;51.194;6.840;2024-01-06T03:35:58;22.23;;;9.35;;
18082;SDS011;9168;51.194;6.840;2024-01-06T03:38:30;24.90;;;9.05;;
18082;SDS011;9168;51.194;6.840;2024-01-06T03:40:57;25.33;;;9.65;;
18082;SDS011;9168;51.194;6.840;2024-01-06T03:43:24;26.83;;;9.35;;
18082;SDS011;9168;51.194;6.840;2024-01-06T03:45:51;24.55;;;9.15;;
18082;SDS011;9168;51.194;6.840;2024-01-06T03:48:19;23.38;;;10.30;;
18082;SDS011;9168;51.194;6.840;2024-01-06T03:50:46;26.73;;;10.50;;
18082;SDS011;9168;51.194;6.840;2024-01-06T03:53:13;25.63;;;10.13;;
18082;SDS011;9168;51.194;6.840;2024-01-06T03:55:40;22.77;;;10.07;;
18082;SDS011;9168;51.194;6.840;2024-01-06T03:58:06;26.20;;;9.65;;
18082;SDS011;9168;51.194;6.840;2024-01-06T04:00:33;25.80;;;10.77;;
18082;SDS011;9168;51.194;6.840;2024-01-06T04:03:00;22.00;;;9.27;;
18082;SDS011;9168;51.194;6.840;2024-01-06T04:05:29;26.33;;;10.40;;
18082;SDS011;9168;51.194;6.840;2024-01-06T04:07:55;27.50;;;10.77;;
18082;SDS011;9168;51.194;6.840;2024-01-06T04:10:22;25.85;;;10.43;;
18082;SDS011;9168;51.194;6.840;2024-01-06T04:12:49;32.22;;;11.82;;
18082;SDS011;9168;51.194;6.840;2024-01-06T04:15:16;25.77;;;10.60;;
18082;SDS011;9168;51.194;6.840;2024-01-06T04:17:43;26.75;;;9.70;;
18082;SDS011;9168;51.194;6.840;2024-01-06T04:20:11;21.98;;;7.80;;
18082;SDS011;9168;51.194;6.840;2024-01-06T04:22:39;18.55;;;6.90;;
18082;SDS011;9168;51.194;6.840;2024-01-06T04:25:06;18.83;;;6.50;;
18082;SDS011;9168;51.194;6.840;2024-01-06T04:27:33;14.43;;;5.40;;
18082;SDS011;9168;51.194;6.840;2024-01-06T04:30:00;15.07;;;5.20;;
18082;SDS011;9168;51.194;6.840;2024-01-06T04:32:27;16.08;;;6.22;;
18082;SDS011;9168;51.194;6.840;2024-01-06T04:34:54;12.30;;;5.50;;
18082;SDS011;9168;51.194;6.840;2024-01-06T04:37:22;12.05;;;4.65;;
18082;SDS011;9168;51.194;6.840;2024-01-06T04:39:50;13.48;;;5.35;;
18082;SDS011;9168;51.194;6.840;2024-01-06T04:42:16;12.85;;;5.40;;
18082;SDS011;9168;51.194;6.840;2024-01-06T04:44:44;13.95;;;5.63;;
18082;SDS011;9168;51.194;6.840;2024-01-06T04:47:11;12.95;;;4.85;;
18082;SDS011;9168;51.194;6.840;2024-01-06T04:49:38;14.18;;;5.60;;
18082;SDS011;9168;51.194;6.840;2024-01-06T04:52:05;12.45;;;5.03;;
18082;SDS011;9168;51.194;6.840;2024-01-06T04:54:32;10.57;;;4.40;;
18082;SDS011;9168;51.194;6.840;2024-01-06T04:57:00;11.82;;;4.75;;
18082;SDS011;9168;51.194;6.840;2024-01-06T04:59:27;13.85;;;5.20;;
18082;SDS011;9168;51.194;6.840;2024-01-06T05:01:55;10.43;;;4.45;;
18082;SDS011;9168;51.194;6.840;2024-01-06T05:04:24;14.48;;;5.47;;
18082;SDS011;9168;51.194;6.840;2024-01-06T05:06:50;13.25;;;5.15;;
18082;SDS011;9168;51.194;6.840;2024-01-06T05:09:17;15.60;;;5.97;;
18082;SDS011;9168;51.194;6.840;2024-01-06T05:11:44;15.60;;;5.55;;
18082;SDS011;9168;51.194;6.840;2024-01-06T05:14:13;17.02;;;6.05;;
18082;SDS011;9168;51.194;6.840;2024-01-06T05:16:40;15.85;;;5.78;;
18082;SDS011;9168;51.194;6.840;2024-01-06T05:19:07;13.32;;;5.38;;
18082;SDS011;9168;51.194;6.840;2024-01-06T05:21:34;12.45;;;4.38;;
18082;SDS011;9168;51.194;6.840;2024-01-06T05:24:01;18.25;;;6.57;;
18082;SDS011;9168;51.194;6.840;2024-01-06T05:26:28;17.65;;;6.38;;
18082;SDS011;9168;51.194;6.840;2024-01-06T05:28:55;18.67;;;6.13;;
18082;SDS011;9168;51.194;6.840;2024-01-06T05:31:24;17.33;;;6.05;;
18082;SDS011;9168;51.194;6.840;2024-01-06T05:33:51;22.00;;;7.35;;
18082;SDS011;9168;51.194;6.840;2024-01-06T05:36:18;19.15;;;7.97;;
18082;SDS011;9168;51.194;6.840;2024-01-06T05:38:46;21.80;;;6.45;;
18082;SDS011;9168;51.194;6.840;2024-01-06T05:41:13;19.55;;;7.18;;
18082;SDS011;9168;51.194;6.840;2024-01-06T05:43:39;14.60;;;5.88;;
18082;SDS011;9168;51.194;6.840;2024-01-06T05:46:06;16.17;;;6.03;;
18082;SDS011;9168;51.194;6.840;2024-01-06T05:48:35;14.35;;;4.72;;
18082;SDS011;9168;51.194;6.840;2024-01-06T05:51:02;9.05;;;3.90;;
18082;SDS011;9168;51.194;6.840;2024-01-06T05:53:30;12.82;;;4.38;;
18082;SDS011;9168;51.194;6.840;2024-01-06T05:55:57;15.38;;;4.60;;
18082;SDS011;9168;51.194;6.840;2024-01-06T05:58:24;15.55;;;5.88;;
18082;SDS011;9168;51.194;6.840;2024-01-06T06:00:51;14.10;;;5.47;;
18082;SDS011;9168;51.194;6.840;2024-01-06T06:03:18;13.82;;;5.40;;
18082;SDS011;9168;51.194;6.840;2024-01-06T06:05:46;12.18;;;4.72;;
18082;SDS011;9168;51.194;6.840;2024-01-06T06:08:13;14.13;;;5.45;;
18082;SDS011;9168;51.194;6.840;2024-01-06T06:10:40;14.65;;;5.65;;
18082;SDS011;9168;51.194;6.840;2024-01-06T06:13:24;13.00;;;5.32;;
18082;SDS011;9168;51.194;6.840;2024-01-06T06:15:51;12.43;;;5.03;;
18082;SDS011;9168;51.194;6.840;2024-01-06T06:18:18;13.77;;;5.22;;
18082;SDS011;9168;51.194;6.840;2024-01-06T06:20:46;12.90;;;4.95;;
18082;SDS011;9168;51.194;6.840;2024-01-06T06:23:13;13.82;;;5.03;;
18082;SDS011;9168;51.194;6.840;2024-01-06T06:25:40;16.83;;;5.93;;
18082;SDS011;9168;51.194;6.840;2024-01-06T06:28:07;14.85;;;5.07;;
18082;SDS011;9168;51.194;6.840;2024-01-06T06:30:34;14.85;;;5.60;;
18082;SDS011;9168;51.194;6.840;2024-01-06T06:33:01;14.05;;;5.38;;
18082;SDS011;9168;51.194;6.840;2024-01-06T06:35:28;13.38;;;4.85;;
18082;SDS011;9168;51.194;6.840;2024-01-06T06:37:56;16.35;;;6.03;;
18082;SDS011;9168;51.194;6.840;2024-01-06T06:40:23;14.52;;;5.97;;
18082;SDS011;9168;51.194;6.840;2024-01-06T06:42:50;15.05;;;5.35;;
18082;SDS011;9168;51.194;6.840;2024-01-06T06:45:17;13.35;;;5.28;;
18082;SDS011;9168;51.194;6.840;2024-01-06T06:47:47;14.60;;;5.57;;
18082;SDS011;9168;51.194;6.840;2024-01-06T06:50:14;14.93;;;5.07;;
18082;SDS011;9168;51.194;6.840;2024-01-06T06:52:41;14.88;;;5.35;;
18082;SDS011;9168;51.194;6.840;2024-01-06T06:55:10;17.75;;;6.10;;
18082;SDS011;9168;51.194;6.840;2024-01-06T06:57:36;14.55;;;5.10;;
18082;SDS011;9168;51.194;6.840;2024-01-06T07:00:04;11.45;;;4.57;;
18082;SDS011;9168;51.194;6.840;2024-01-06T07:02:32;14.55;;;5.15;;
18082;SDS011;9168;51.194;6.840;2024-01-06T07:05:00;13.40;;;5.00;;
18082;SDS011;9168;51.194;6.840;2024-01-06T07:07:26;12.15;;;4.82;;
18082;SDS011;9168;51.194;6.840;2024-01-06T07:09:53;13.38;;;4.78;;
18082;SDS011;9168;51.194;6.840;2024-01-06T07:12:21;12.15;;;4.80;;
18082;SDS011;9168;51.194;6.840;2024-01-06T07:14:48;15.30;;;5.30;;
18082;SDS011;9168;51.194;6.840;2024-01-06T07:17:15;12.50;;;5.30;;
18082;SDS011;9168;51.194;6.840;2024-01-06T07:19:42;12.98;;;4.78;;
18082;SDS011;9168;51.194;6.840;2024-01-06T07:22:09;13.93;;;5.32;;
18082;SDS011;9168;51.194;6.840;2024-01-06T07:24:36;12.52;;;4.78;;
18082;SDS011;9168;51.194;6.840;2024-01-06T07:27:03;15.63;;;6.05;;
18082;SDS011;9168;51.194;6.840;2024-01-06T07:29:31;12.50;;;4.53;;
18082;SDS011;9168;51.194;6.840;2024-01-06T07:31:58;16.02;;;5.43;;
18082;SDS011;9168;51.194;6.840;2024-01-06T07:34:25;15.32;;;5.15;;
18082;SDS011;9168;51.194;6.840;2024-01-06T07:36:52;14.30;;;5.85;;
18082;SDS011;9168;51.194;6.840;2024-01-06T07:39:19;19.08;;;5.82;;
18082;SDS011;9168;51.194;6.840;2024-01-06T07:41:45;16.95;;;6.07;;
18082;SDS011;9168;51.194;6.840;2024-01-06T07:44:12;14.60;;;5.40;;
18082;SDS011;9168;51.194;6.840;2024-01-06T07:46:42;12.43;;;5.28;;
18082;SDS011;9168;51.194;6.840;2024-01-06T07:49:09;12.95;;;5.20;;
18082;SDS011;9168;51.194;6.840;2024-01-06T07:51:36;14.77;;;5.85;;
18082;SDS011;9168;51.194;6.840;2024-01-06T07:54:02;14.75;;;5.28;;
18082;SDS011;9168;51.194;6.840;2024-01-06T07:56:31;15.52;;;5.38;;
18082;SDS011;9168;51.194;6.840;2024-01-06T07:58:58;14.77;;;5.97;;
18082;SDS011;9168;51.194;6.840;2024-01-06T08:01:25;15.10;;;5.43;;
18082;SDS011;9168;51.194;6.840;2024-01-06T08:03:53;15.07;;;4.70;;
18082;SDS011;9168;51.194;6.840;2024-01-06T08:06:20;18.08;;;6.35;;
18082;SDS011;9168;51.194;6.840;2024-01-06T08:08:47;10.40;;;4.30;;
18082;SDS011;9168;51.194;6.840;2024-01-06T08:11:14;15.27;;;5.45;;
18082;SDS011;9168;51.194;6.840;2024-01-06T08:13:41;12.98;;;4.70;;
18082;SDS011;9168;51.194;6.840;2024-01-06T08:16:07;16.80;;;6.13;;
18082;SDS011;9168;51.194;6.840;2024-01-06T08:18:34;12.75;;;5.22;;
18082;SDS011;9168;51.194;6.840;2024-01-06T08:21:03;17.65;;;6.03;;
18082;SDS011;9168;51.194;6.840;2024-01-06T08:23:30;22.83;;;7.32;;
18082;SDS011;9168;51.194;6.840;2024-01-06T08:25:57;17.75;;;7.00;;
18082;SDS011;9168;51.194;6.840;2024-01-06T08:28:24;17.88;;;6.82;;
18082;SDS011;9168;51.194;6.840;2024-01-06T08:30:51;17.48;;;7.15;;
18082;SDS011;9168;51.194;6.840;2024-01-06T08:33:17;21.45;;;7.65;;
18082;SDS011;9168;51.194;6.840;2024-01-06T08:35:44;18.15;;;7.22;;
18082;SDS011;9168;51.194;6.840;2024-01-06T08:38:13;20.77;;;7.80;;
18082;SDS011;9168;51.194;6.840;2024-01-06T08:40:39;20.73;;;7.60;;
18082;SDS011;9168;51.194;6.840;2024-01-06T08:43:07;20.80;;;8.13;;
18082;SDS011;9168;51.194;6.840;2024-01-06T08:45:34;22.35;;;7.75;;
18082;SDS011;9168;51.194;6.840;2024-01-06T08:48:01;21.23;;;8.18;;
18082;SDS011;9168;51.194;6.840;2024-01-06T08:50:28;22.95;;;8.98;;
18082;SDS011;9168;51.194;6.840;2024-01-06T08:52:55;18.52;;;7.65;;
18082;SDS011;9168;51.194;6.840;2024-01-06T08:55:23;17.13;;;6.95;;
18082;SDS011;9168;51.194;6.840;2024-01-06T08:57:50;22.33;;;7.97;;
18082;SDS011;9168;51.194;6.840;2024-01-06T09:00:17;24.08;;;7.82;;
18082;SDS011;9168;51.194;6.840;2024-01-06T09:02:44;19.48;;;7.22;;
18082;SDS011;9168;51.194;6.840;2024-01-06T09:05:11;19.60;;;7.65;;
18082;SDS011;9168;51.194;6.840;2024-01-06T09:07:38;21.08;;;7.35;;
18082;SDS011;9168;51.194;6.840;2024-01-06T09:10:05;20.70;;;7.75;;
18082;SDS011;9168;51.194;6.840;2024-01-06T09:12:36;18.65;;;7.25;;
18082;SDS011;9168;51.194;6.840;2024-01-06T09:15:03;20.25;;;7.63;;
18082;SDS011;9168;51.194;6.840;2024-01-06T09:17:30;19.58;;;7.88;;
18082;SDS011;9168;51.194;6.840;2024-01-06T09:20:00;19.33;;;7.78;;
18082;SDS011;9168;51.194;6.840;2024-01-06T09:22:28;19.88;;;7.50;;
18082;SDS011;9168;51.194;6.840;2024-01-06T09:24:54;18.73;;;6.93;;
18082;SDS011;9168;51.194;6.840;2024-01-06T09:27:21;20.98;;;7.72;;
18082;SDS011;9168;51.194;6.840;2024-01-06T09:29:49;19.90;;;7.07;;
18082;SDS011;9168;51.194;6.840;2024-01-06T09:32:17;19.70;;;6.78;;
18082;SDS011;9168;51.194;6.840;2024-01-06T09:34:43;18.15;;;6.82;;
18082;SDS011;9168;51.194;6.840;2024-01-06T09:37:10;16.88;;;6.55;;
18082;SDS011;9168;51.194;6.840;2024-01-06T09:39:37;21.42;;;7.05;;
18082;SDS011;9168;51.194;6.840;2024-01-06T09:42:04;20.27;;;7.15;;
18082;SDS011;9168;51.194;6.840;2024-01-06T09:44:32;18.02;;;6.85;;
18082;SDS011;9168;51.194;6.840;2024-01-06T09:47:00;21.70;;;8.30;;
18082;SDS011;9168;51.194;6.840;2024-01-06T09:49:29;23.77;;;9.13;;
18082;SDS011;9168;51.194;6.840;2024-01-06T09:51:59;26.50;;;8.55;;
18082;SDS011;9168;51.194;6.840;2024-01-06T09:54:28;23.17;;;8.05;;
18082;SDS011;9168;51.194;6.840;2024-01-06T09:56:59;19.88;;;7.82;;
18082;SDS011;9168;51.194;6.840;2024-01-06T09:59:26;21.45;;;8.05;;
18082;SDS011;9168;51.194;6.840;2024-01-06T10:01:55;23.02;;;7.75;;
18082;SDS011;9168;51.194;6.840;2024-01-06T10:04:25;22.92;;;8.23;;
18082;SDS011;9168;51.194;6.840;2024-01-06T10:06:52;23.60;;;8.35;;
18082;SDS011;9168;51.194;6.840;2024-01-06T10:09:22;20.50;;;8.02;;
18082;SDS011;9168;51.194;6.840;2024-01-06T10:11:54;28.85;;;9.02;;
18082;SDS011;9168;51.194;6.840;2024-01-06T10:14:22;24.48;;;8.90;;
18082;SDS011;9168;51.194;6.840;2024-01-06T10:16:49;25.25;;;8.30;;
18082;SDS011;9168;51.194;6.840;2024-01-06T10:19:17;25.38;;;8.52;;
18082;SDS011;9168;51.194;6.840;2024-01-06T10:21:45;29.25;;;9.35;;
18082;SDS011;9168;51.194;6.840;2024-01-06T10:24:12;21.42;;;8.40;;
18082;SDS011;9168;51.194;6.840;2024-01-06T10:26:39;25.45;;;8.90;;
18082;SDS011;9168;51.194;6.840;2024-01-06T10:29:07;23.25;;;8.27;;
18082;SDS011;9168;51.194;6.840;2024-01-06T10:31:33;21.77;;;8.02;;
18082;SDS011;9168;51.194;6.840;2024-01-06T10:34:00;23.15;;;8.32;;
18082;SDS011;9168;51.194;6.840;2024-01-06T10:36:27;22.23;;;7.90;;
18082;SDS011;9168;51.194;6.840;2024-01-06T10:38:57;25.77;;;8.23;;
18082;SDS011;9168;51.194;6.840;2024-01-06T10:41:26;23.83;;;9.18;;
18082;SDS011;9168;51.194;6.840;2024-01-06T10:43:55;28.00;;;9.40;;
18082;SDS011;9168;51.194;6.840;2024-01-06T10:46:26;31.27;;;10.73;;
18082;SDS011;9168;51.194;6.840;2024-01-06T10:48:54;33.25;;;11.27;;
18082;SDS011;9168;51.194;6.840;2024-01-06T10:51:23;27.92;;;10.15;;
18082;SDS011;9168;51.194;6.840;2024-01-06T10:53:54;28.30;;;10.50;;
18082;SDS011;9168;51.194;6.840;2024-01-06T10:56:25;35.15;;;10.40;;
18082;SDS011;9168;51.194;6.840;2024-01-06T10:58:53;29.63;;;9.88;;
18082;SDS011;9168;51.194;6.840;2024-01-06T11:01:22;26.13;;;9.13;;
18082;SDS011;9168;51.194;6.840;2024-01-06T11:03:50;26.48;;;8.88;;
18082;SDS011;9168;51.194;6.840;2024-01-06T11:06:19;23.85;;;8.38;;
18082;SDS011;9168;51.194;6.840;2024-01-06T11:08:48;22.90;;;8.80;;
18082;SDS011;9168;51.194;6.840;2024-01-06T11:11:19;22.33;;;8.40;;
18082;SDS011;9168;51.194;6.840;2024-01-06T11:13:49;30.08;;;8.80;;
18082;SDS011;9168;51.194;6.840;2024-01-06T11:19:00;22.70;;;8.60;;
18082;SDS011;9168;51.194;6.840;2024-01-06T11:21:28;24.70;;;9.02;;
18082;SDS011;9168;51.194;6.840;2024-01-06T11:24:13;25.77;;;9.75;;
18082;SDS011;9168;51.194;6.840;2024-01-06T11:26:45;19.42;;;7.65;;
18082;SDS011;9168;51.194;6.840;2024-01-06T11:29:18;28.42;;;10.73;;
18082;SDS011;9168;51.194;6.840;2024-01-06T11:34:43;27.13;;;9.18;;
18082;SDS011;9168;51.194;6.840;2024-01-06T11:37:14;32.58;;;9.88;;
18082;SDS011;9168;51.194;6.840;2024-01-06T11:39:43;27.50;;;8.85;;
18082;SDS011;9168;51.194;6.840;2024-01-06T11:42:11;23.83;;;8.25;;
18082;SDS011;9168;51.194;6.840;2024-01-06T11:44:39;22.50;;;9.07;;
18082;SDS011;9168;51.194;6.840;2024-01-06T11:47:10;24.42;;;9.85;;
18082;SDS011;9168;51.194;6.840;2024-01-06T11:49:38;29.80;;;10.07;;
18082;SDS011;9168;51.194;6.840;2024-01-06T11:52:04;24.55;;;9.77;;
18082;SDS011;9168;51.194;6.840;2024-01-06T11:54:32;31.73;;;11.32;;
18082;SDS011;9168;51.194;6.840;2024-01-06T11:56:59;26.20;;;10.63;;
18082;SDS011;9168;51.194;6.840;2024-01-06T11:59:26;30.98;;;11.63;;
18082;SDS011;9168;51.194;6.840;2024-01-06T12:01:54;34.28;;;11.73;;
18082;SDS011;9168;51.194;6.840;2024-01-06T12:04:21;33.40;;;12.25;;
18082;SDS011;9168;51.194;6.840;2024-01-06T12:06:50;33.20;;;11.32;;
18082;SDS011;9168;51.194;6.840;2024-01-06T12:09:17;39.05;;;12.25;;
18082;SDS011;9168;51.194;6.840;2024-01-06T12:11:45;31.33;;;11.07;;
18082;SDS011;9168;51.194;6.840;2024-01-06T12:14:12;30.48;;;11.05;;
18082;SDS011;9168;51.194;6.840;2024-01-06T12:16:40;31.33;;;11.35;;
18082;SDS011;9168;51.194;6.840;2024-01-06T12:19:09;27.05;;;10.70;;
18082;SDS011;9168;51.194;6.840;2024-01-06T12:21:36;43.03;;;14.32;;
18082;SDS011;9168;51.194;6.840;2024-01-06T12:24:13;44.92;;;14.93;;
18082;SDS011;9168;51.194;6.840;2024-01-06T12:26:44;46.63;;;15.43;;
18082;SDS011;9168;51.194;6.840;2024-01-06T12:29:11;44.10;;;16.60;;
18082;SDS011;9168;51.194;6.840;2024-01-06T12:31:38;47.20;;;16.45;;
18082;SDS011;9168;51.194;6.840;2024-01-06T12:34:05;42.92;;;15.45;;
18082;SDS011;9168;51.194;6.840;2024-01-06T12:36:34;43.72;;;15.52;;
18082;SDS011;9168;51.194;6.840;2024-01-06T12:39:02;43.15;;;15.55;;
18082;SDS011;9168;51.194;6.840;2024-01-06T12:41:29;38.60;;;13.85;;
18082;SDS011;9168;51.194;6.840;2024-01-06T12:43:58;33.13;;;11.15;;
18082;SDS011;9168;51.194;6.840;2024-01-06T12:46:25;34.50;;;11.35;;
18082;SDS011;9168;51.194;6.840;2024-01-06T12:48:52;34.35;;;12.43;;
18082;SDS011;9168;51.194;6.840;2024-01-06T12:51:19;41.53;;;14.25;;
18082;SDS011;9168;51.194;6.840;2024-01-06T12:53:47;45.70;;;14.85;;
18082;SDS011;9168;51.194;6.840;2024-01-06T12:56:14;49.20;;;14.57;;
18082;SDS011;9168;51.194;6.840;2024-01-06T12:58:41;54.10;;;15.93;;
18082;SDS011;9168;51.194;6.840;2024-01-06T13:01:08;48.60;;;15.02;;
18082;SDS011;9168;51.194;6.840;2024-01-06T13:03:35;45.30;;;14.95;;
18082;SDS011;9168;51.194;6.840;2024-01-06T13:06:02;49.35;;;16.10;;
18082;SDS011;9168;51.194;6.840;2024-01-06T13:08:30;48.30;;;14.75;;
18082;SDS011;9168;51.194;6.840;2024-01-06T13:10:58;42.97;;;15.07;;
18082;SDS011;9168;51.194;6.840;2024-01-06T13:13:25;61.17;;;20.10;;
18082;SDS011;9168;51.194;6.840;2024-01-06T13:15:52;60.17;;;19.30;;
18082;SDS011;9168;51.194;6.840;2024-01-06T13:18:19;59.30;;;18.45;;
18082;SDS011;9168;51.194;6.840;2024-01-06T13:20:46;48.67;;;17.42;;
18082;SDS011;9168;51.194;6.840;2024-01-06T13:23:12;50.33;;;18.40;;
18082;SDS011;9168;51.194;6.840;2024-01-06T13:25:40;46.80;;;15.90;;
18082;SDS011;9168;51.194;6.840;2024-01-06T13:28:08;49.22;;;16.08;;
18082;SDS011;9168;51.194;6.840;2024-01-06T13:30:35;50.95;;;15.63;;
18082;SDS011;9168;51.194;6.840;2024-01-06T13:33:04;45.78;;;15.82;;
18082;SDS011;9168;51.194;6.840;2024-01-06T13:35:31;41.03;;;13.48;;
18082;SDS011;9168;51.194;6.840;2024-01-06T13:37:58;37.83;;;12.65;;
18082;SDS011;9168;51.194;6.840;2024-01-06T13:40:26;34.28;;;12.73;;
18082;SDS011;9168;51.194;6.840;2024-01-06T13:42:53;33.63;;;11.15;;
18082;SDS011;9168;51.194;6.840;2024-01-06T13:45:22;41.75;;;13.95;;
18082;SDS011;9168;51.194;6.840;2024-01-06T13:47:49;37.03;;;12.05;;
18082;SDS011;9168;51.194;6.840;2024-01-06T13:50:17;29.77;;;9.80;;
18082;SDS011;9168;51.194;6.840;2024-01-06T13:52:44;29.83;;;10.52;;
18082;SDS011;9168;51.194;6.840;2024-01-06T13:55:11;28.88;;;10.23;;
18082;SDS011;9168;51.194;6.840;2024-01-06T13:57:38;33.63;;;11.13;;
18082;SDS011;9168;51.194;6.840;2024-01-06T14:00:07;36.78;;;12.27;;
18082;SDS011;9168;51.194;6.840;2024-01-06T14:02:35;30.70;;;11.77;;
18082;SDS011;9168;51.194;6.840;2024-01-06T14:05:03;28.63;;;9.95;;
18082;SDS011;9168;51.194;6.840;2024-01-06T14:07:33;26.83;;;9.68;;
18082;SDS011;9168;51.194;6.840;2024-01-06T14:10:00;27.13;;;9.07;;
18082;SDS011;9168;51.194;6.840;2024-01-06T14:12:28;24.55;;;8.20;;
18082;SDS011;9168;51.194;6.840;2024-01-06T14:14:56;22.95;;;8.15;;
18082;SDS011;9168;51.194;6.840;2024-01-06T14:17:23;28.63;;;9.18;;
18082;SDS011;9168;51.194;6.840;2024-01-06T14:19:52;25.33;;;9.38;;
18082;SDS011;9168;51.194;6.840;2024-01-06T14:22:19;29.02;;;10.05;;
18082;SDS011;9168;51.194;6.840;2024-01-06T14:24:46;21.48;;;8.52;;
18082;SDS011;9168;51.194;6.840;2024-01-06T14:27:13;25.83;;;8.50;;
18082;SDS011;9168;51.194;6.840;2024-01-06T14:29:40;27.60;;;8.50;;
18082;SDS011;9168;51.194;6.840;2024-01-06T14:32:07;21.25;;;8.93;;
18082;SDS011;9168;51.194;6.840;2024-01-06T14:34:34;21.17;;;7.55;;
18082;SDS011;9168;51.194;6.840;2024-01-06T14:37:02;23.10;;;7.97;;
18082;SDS011;9168;51.194;6.840;2024-01-06T14:39:29;21.45;;;8.02;;
18082;SDS011;9168;51.194;6.840;2024-01-06T14:41:56;24.25;;;8.30;;
18082;SDS011;9168;51.194;6.840;2024-01-06T14:44:23;23.23;;;8.15;;
18082;SDS011;9168;51.194;6.840;2024-01-06T14:46:52;22.75;;;7.72;;
18082;SDS011;9168;51.194;6.840;2024-01-06T14:49:19;23.10;;;8.20;;
18082;SDS011;9168;51.194;6.840;2024-01-06T14:51:45;20.85;;;8.30;;
18082;SDS011;9168;51.194;6.840;2024-01-06T14:54:14;22.88;;;10.02;;